Orleans, California
Current Conditions -  °F | °C
As of 11:53 AM on Thursday 23 Oct 2014 (Local Time) from KACV Reporting Station
Light Rain Light Rain  
Wind Chill: 58°   Ceiling: 300
Heat Index: 58°   Visibility: 0.5mi
Dew Point: 58°   Wind: 0mph
Humidity: 100%   Direction: NA
Pressure: 30"   Gusts: NA
Location:  41.3°N, 123.54°W
Report Text: KACV 231853Z AUTO 00000KT 1/2SM R32/1800V3000FT -RA FG VV003 14/14 A3000 RMK AO2 SLP164 P0005 T01440144
Loading
Personal Weather Stations






























Interactive Weather Map
Tropical Storm Tracking
New forecast layout! Learn more

10-Day Weather Forecast

Advertisements
Track Severe Weather on mobile